sensor_id;sensor_type;location;lat;lon;timestamp;P1;durP1;ratioP1;P2;durP2;ratioP2
11447;SDS011;43755;49.736;8.734;2024-03-02T00:00:20;10.98;;;8.57;;
11447;SDS011;43755;49.736;8.734;2024-03-02T00:02:22;9.57;;;8.40;;
11447;SDS011;43755;49.736;8.734;2024-03-02T00:04:23;11.85;;;9.43;;
11447;SDS011;43755;49.736;8.734;2024-03-02T00:06:25;13.20;;;10.63;;
11447;SDS011;43755;49.736;8.734;2024-03-02T00:08:28;14.98;;;11.10;;
11447;SDS011;43755;49.736;8.734;2024-03-02T00:10:32;15.52;;;11.85;;
11447;SDS011;43755;49.736;8.734;2024-03-02T00:12:38;14.52;;;12.80;;
11447;SDS011;43755;49.736;8.734;2024-03-02T00:14:40;16.90;;;14.38;;
11447;SDS011;43755;49.736;8.734;2024-03-02T00:16:42;18.45;;;14.65;;
11447;SDS011;43755;49.736;8.734;2024-03-02T00:18:43;17.27;;;14.68;;
11447;SDS011;43755;49.736;8.734;2024-03-02T00:20:45;19.20;;;15.63;;
11447;SDS011;43755;49.736;8.734;2024-03-02T00:22:46;23.00;;;17.02;;
11447;SDS011;43755;49.736;8.734;2024-03-02T00:24:48;20.50;;;16.97;;
11447;SDS011;43755;49.736;8.734;2024-03-02T00:26:50;24.10;;;18.13;;
11447;SDS011;43755;49.736;8.734;2024-03-02T00:28:51;23.65;;;19.02;;
11447;SDS011;43755;49.736;8.734;2024-03-02T00:30:57;25.05;;;19.65;;
11447;SDS011;43755;49.736;8.734;2024-03-02T00:32:59;24.58;;;19.73;;
11447;SDS011;43755;49.736;8.734;2024-03-02T00:35:00;24.40;;;19.38;;
11447;SDS011;43755;49.736;8.734;2024-03-02T00:37:01;26.85;;;19.55;;
11447;SDS011;43755;49.736;8.734;2024-03-02T00:39:03;24.08;;;19.25;;
11447;SDS011;43755;49.736;8.734;2024-03-02T00:41:09;26.48;;;19.90;;
11447;SDS011;43755;49.736;8.734;2024-03-02T00:45:45;24.95;;;19.67;;
11447;SDS011;43755;49.736;8.734;2024-03-02T00:47:45;21.70;;;18.97;;
11447;SDS011;43755;49.736;8.734;2024-03-02T00:49:47;27.20;;;20.55;;
11447;SDS011;43755;49.736;8.734;2024-03-02T00:51:49;26.65;;;19.98;;
11447;SDS011;43755;49.736;8.734;2024-03-02T00:53:50;25.88;;;20.17;;
11447;SDS011;43755;49.736;8.734;2024-03-02T00:55:52;25.10;;;19.02;;
11447;SDS011;43755;49.736;8.734;2024-03-02T00:57:54;25.10;;;19.87;;
11447;SDS011;43755;49.736;8.734;2024-03-02T00:59:56;23.35;;;19.20;;
11447;SDS011;43755;49.736;8.734;2024-03-02T01:01:57;25.00;;;18.90;;
11447;SDS011;43755;49.736;8.734;2024-03-02T01:03:58;23.25;;;18.30;;
11447;SDS011;43755;49.736;8.734;2024-03-02T01:05:59;22.37;;;17.87;;
11447;SDS011;43755;49.736;8.734;2024-03-02T01:08:00;18.95;;;15.90;;
11447;SDS011;43755;49.736;8.734;2024-03-02T01:10:02;20.50;;;15.77;;
11447;SDS011;43755;49.736;8.734;2024-03-02T01:12:03;19.23;;;15.55;;
11447;SDS011;43755;49.736;8.734;2024-03-02T01:14:06;18.23;;;14.70;;
11447;SDS011;43755;49.736;8.734;2024-03-02T01:16:08;18.05;;;15.13;;
11447;SDS011;43755;49.736;8.734;2024-03-02T01:18:08;19.27;;;15.03;;
11447;SDS011;43755;49.736;8.734;2024-03-02T01:20:10;17.35;;;14.40;;
11447;SDS011;43755;49.736;8.734;2024-03-02T01:22:12;14.88;;;12.60;;
11447;SDS011;43755;49.736;8.734;2024-03-02T01:24:12;17.80;;;13.70;;
11447;SDS011;43755;49.736;8.734;2024-03-02T01:26:15;14.85;;;11.82;;
11447;SDS011;43755;49.736;8.734;2024-03-02T01:28:17;14.48;;;12.05;;
11447;SDS011;43755;49.736;8.734;2024-03-02T01:30:20;12.55;;;10.48;;
11447;SDS011;43755;49.736;8.734;2024-03-02T01:32:21;14.43;;;10.55;;
11447;SDS011;43755;49.736;8.734;2024-03-02T01:34:23;11.93;;;9.98;;
11447;SDS011;43755;49.736;8.734;2024-03-02T01:36:24;12.82;;;9.35;;
11447;SDS011;43755;49.736;8.734;2024-03-02T01:38:26;13.10;;;10.27;;
11447;SDS011;43755;49.736;8.734;2024-03-02T01:40:28;10.63;;;8.65;;
11447;SDS011;43755;49.736;8.734;2024-03-02T01:42:30;12.30;;;9.65;;
11447;SDS011;43755;49.736;8.734;2024-03-02T01:44:31;11.85;;;8.80;;
11447;SDS011;43755;49.736;8.734;2024-03-02T01:46:34;9.40;;;8.27;;
11447;SDS011;43755;49.736;8.734;2024-03-02T01:48:36;6.82;;;6.22;;
11447;SDS011;43755;49.736;8.734;2024-03-02T01:50:36;8.23;;;6.60;;
11447;SDS011;43755;49.736;8.734;2024-03-02T01:52:37;7.63;;;6.82;;
11447;SDS011;43755;49.736;8.734;2024-03-02T01:54:38;8.60;;;7.67;;
11447;SDS011;43755;49.736;8.734;2024-03-02T01:56:39;8.38;;;7.40;;
11447;SDS011;43755;49.736;8.734;2024-03-02T01:58:41;9.40;;;8.40;;
11447;SDS011;43755;49.736;8.734;2024-03-02T02:00:44;8.90;;;7.55;;
11447;SDS011;43755;49.736;8.734;2024-03-02T02:02:47;9.40;;;8.07;;
11447;SDS011;43755;49.736;8.734;2024-03-02T02:04:49;9.13;;;8.00;;
11447;SDS011;43755;49.736;8.734;2024-03-02T02:06:51;8.80;;;7.90;;
11447;SDS011;43755;49.736;8.734;2024-03-02T02:08:51;8.87;;;7.77;;
11447;SDS011;43755;49.736;8.734;2024-03-02T02:10:52;9.15;;;7.63;;
11447;SDS011;43755;49.736;8.734;2024-03-02T02:12:54;9.70;;;7.78;;
11447;SDS011;43755;49.736;8.734;2024-03-02T02:14:55;8.68;;;7.68;;
11447;SDS011;43755;49.736;8.734;2024-03-02T02:16:57;8.43;;;7.13;;
11447;SDS011;43755;49.736;8.734;2024-03-02T02:18:59;9.57;;;6.87;;
11447;SDS011;43755;49.736;8.734;2024-03-02T02:21:00;11.40;;;7.65;;
11447;SDS011;43755;49.736;8.734;2024-03-02T02:23:03;8.60;;;7.70;;
11447;SDS011;43755;49.736;8.734;2024-03-02T02:25:06;8.75;;;7.68;;
11447;SDS011;43755;49.736;8.734;2024-03-02T02:27:07;8.63;;;7.72;;
11447;SDS011;43755;49.736;8.734;2024-03-02T02:29:09;8.45;;;7.63;;
11447;SDS011;43755;49.736;8.734;2024-03-02T02:31:11;9.00;;;7.95;;
11447;SDS011;43755;49.736;8.734;2024-03-02T02:33:12;8.55;;;7.65;;
11447;SDS011;43755;49.736;8.734;2024-03-02T02:35:14;8.43;;;7.55;;
11447;SDS011;43755;49.736;8.734;2024-03-02T02:37:14;9.80;;;8.07;;
11447;SDS011;43755;49.736;8.734;2024-03-02T02:39:17;9.65;;;7.95;;
11447;SDS011;43755;49.736;8.734;2024-03-02T02:41:22;8.68;;;7.78;;
11447;SDS011;43755;49.736;8.734;2024-03-02T02:43:23;9.77;;;7.67;;
11447;SDS011;43755;49.736;8.734;2024-03-02T02:45:24;9.50;;;8.25;;
11447;SDS011;43755;49.736;8.734;2024-03-02T02:47:25;9.38;;;8.05;;
11447;SDS011;43755;49.736;8.734;2024-03-02T02:49:26;10.90;;;8.60;;
11447;SDS011;43755;49.736;8.734;2024-03-02T02:51:27;9.35;;;7.97;;
11447;SDS011;43755;49.736;8.734;2024-03-02T02:53:29;10.13;;;8.40;;
11447;SDS011;43755;49.736;8.734;2024-03-02T02:55:31;8.55;;;7.68;;
11447;SDS011;43755;49.736;8.734;2024-03-02T02:57:33;8.95;;;7.55;;
11447;SDS011;43755;49.736;8.734;2024-03-02T02:59:35;8.68;;;7.22;;
11447;SDS011;43755;49.736;8.734;2024-03-02T03:01:37;8.32;;;7.18;;
11447;SDS011;43755;49.736;8.734;2024-03-02T03:03:39;8.38;;;7.18;;
11447;SDS011;43755;49.736;8.734;2024-03-02T03:05:41;7.57;;;6.70;;
11447;SDS011;43755;49.736;8.734;2024-03-02T03:07:41;7.47;;;6.77;;
11447;SDS011;43755;49.736;8.734;2024-03-02T03:09:44;7.55;;;6.85;;
11447;SDS011;43755;49.736;8.734;2024-03-02T03:11:46;6.90;;;6.30;;
11447;SDS011;43755;49.736;8.734;2024-03-02T03:13:48;8.05;;;6.47;;
11447;SDS011;43755;49.736;8.734;2024-03-02T03:15:48;8.03;;;6.57;;
11447;SDS011;43755;49.736;8.734;2024-03-02T03:17:50;7.10;;;6.25;;
11447;SDS011;43755;49.736;8.734;2024-03-02T03:19:51;7.00;;;6.15;;
11447;SDS011;43755;49.736;8.734;2024-03-02T03:21:53;6.75;;;6.10;;
11447;SDS011;43755;49.736;8.734;2024-03-02T03:23:54;7.15;;;5.93;;
11447;SDS011;43755;49.736;8.734;2024-03-02T03:25:56;6.70;;;6.00;;
11447;SDS011;43755;49.736;8.734;2024-03-02T03:27:58;6.82;;;5.90;;
11447;SDS011;43755;49.736;8.734;2024-03-02T03:29:59;6.82;;;6.13;;
11447;SDS011;43755;49.736;8.734;2024-03-02T03:32:00;7.75;;;6.25;;
11447;SDS011;43755;49.736;8.734;2024-03-02T03:34:02;6.50;;;5.90;;
11447;SDS011;43755;49.736;8.734;2024-03-02T03:36:03;6.15;;;5.55;;
11447;SDS011;43755;49.736;8.734;2024-03-02T03:38:05;6.50;;;5.90;;
11447;SDS011;43755;49.736;8.734;2024-03-02T03:40:06;6.18;;;5.50;;
11447;SDS011;43755;49.736;8.734;2024-03-02T03:42:10;6.45;;;5.85;;
11447;SDS011;43755;49.736;8.734;2024-03-02T03:44:12;6.00;;;5.25;;
11447;SDS011;43755;49.736;8.734;2024-03-02T03:46:14;6.20;;;5.53;;
11447;SDS011;43755;49.736;8.734;2024-03-02T03:48:15;6.22;;;5.55;;
11447;SDS011;43755;49.736;8.734;2024-03-02T03:50:17;6.25;;;5.65;;
11447;SDS011;43755;49.736;8.734;2024-03-02T03:52:18;6.28;;;5.55;;
11447;SDS011;43755;49.736;8.734;2024-03-02T03:54:21;5.90;;;5.30;;
11447;SDS011;43755;49.736;8.734;2024-03-02T03:56:22;6.15;;;5.50;;
11447;SDS011;43755;49.736;8.734;2024-03-02T03:58:23;5.95;;;5.35;;
11447;SDS011;43755;49.736;8.734;2024-03-02T04:00:26;6.18;;;5.40;;
11447;SDS011;43755;49.736;8.734;2024-03-02T04:02:27;9.70;;;5.35;;
11447;SDS011;43755;49.736;8.734;2024-03-02T04:04:28;5.67;;;5.07;;
11447;SDS011;43755;49.736;8.734;2024-03-02T04:06:29;5.57;;;5.07;;
11447;SDS011;43755;49.736;8.734;2024-03-02T04:08:31;5.72;;;5.10;;
11447;SDS011;43755;49.736;8.734;2024-03-02T04:10:32;6.93;;;5.25;;
11447;SDS011;43755;49.736;8.734;2024-03-02T04:12:34;6.55;;;5.10;;
11447;SDS011;43755;49.736;8.734;2024-03-02T04:14:36;5.93;;;5.30;;
11447;SDS011;43755;49.736;8.734;2024-03-02T04:16:39;5.20;;;4.75;;
11447;SDS011;43755;49.736;8.734;2024-03-02T04:18:40;5.68;;;5.07;;
11447;SDS011;43755;49.736;8.734;2024-03-02T04:20:41;5.72;;;5.22;;
11447;SDS011;43755;49.736;8.734;2024-03-02T04:22:43;5.57;;;5.00;;
11447;SDS011;43755;49.736;8.734;2024-03-02T04:24:44;5.85;;;5.32;;
11447;SDS011;43755;49.736;8.734;2024-03-02T04:26:44;5.53;;;5.03;;
11447;SDS011;43755;49.736;8.734;2024-03-02T04:28:46;7.00;;;5.03;;
11447;SDS011;43755;49.736;8.734;2024-03-02T04:30:47;7.57;;;5.80;;
11447;SDS011;43755;49.736;8.734;2024-03-02T04:32:50;6.53;;;5.20;;
11447;SDS011;43755;49.736;8.734;2024-03-02T04:34:50;5.60;;;5.10;;
11447;SDS011;43755;49.736;8.734;2024-03-02T04:36:52;5.65;;;5.15;;
11447;SDS011;43755;49.736;8.734;2024-03-02T04:38:53;5.70;;;5.03;;
11447;SDS011;43755;49.736;8.734;2024-03-02T04:40:54;5.35;;;4.85;;
11447;SDS011;43755;49.736;8.734;2024-03-02T04:42:56;5.70;;;5.20;;
11447;SDS011;43755;49.736;8.734;2024-03-02T04:44:59;5.65;;;5.07;;
11447;SDS011;43755;49.736;8.734;2024-03-02T04:47:00;7.15;;;5.13;;
11447;SDS011;43755;49.736;8.734;2024-03-02T04:49:03;7.85;;;5.32;;
11447;SDS011;43755;49.736;8.734;2024-03-02T04:51:05;5.63;;;5.13;;
11447;SDS011;43755;49.736;8.734;2024-03-02T04:53:06;5.80;;;5.00;;
11447;SDS011;43755;49.736;8.734;2024-03-02T04:55:07;4.87;;;4.43;;
11447;SDS011;43755;49.736;8.734;2024-03-02T04:57:24;5.50;;;4.85;;
11447;SDS011;43755;49.736;8.734;2024-03-02T04:59:26;5.25;;;4.55;;
11447;SDS011;43755;49.736;8.734;2024-03-02T05:01:27;6.05;;;5.07;;
11447;SDS011;43755;49.736;8.734;2024-03-02T05:03:29;5.68;;;5.18;;
11447;SDS011;43755;49.736;8.734;2024-03-02T05:05:30;5.27;;;4.77;;
11447;SDS011;43755;49.736;8.734;2024-03-02T05:07:32;4.68;;;4.07;;
11447;SDS011;43755;49.736;8.734;2024-03-02T05:09:33;4.97;;;4.57;;
11447;SDS011;43755;49.736;8.734;2024-03-02T05:11:34;5.00;;;4.50;;
11447;SDS011;43755;49.736;8.734;2024-03-02T05:13:55;4.72;;;4.32;;
11447;SDS011;43755;49.736;8.734;2024-03-02T05:15:57;4.93;;;4.45;;
11447;SDS011;43755;49.736;8.734;2024-03-02T05:17:58;4.72;;;4.32;;
11447;SDS011;43755;49.736;8.734;2024-03-02T05:20:02;5.60;;;4.90;;
11447;SDS011;43755;49.736;8.734;2024-03-02T05:22:06;4.97;;;4.47;;
11447;SDS011;43755;49.736;8.734;2024-03-02T05:24:07;5.60;;;5.03;;
11447;SDS011;43755;49.736;8.734;2024-03-02T05:26:08;5.13;;;4.63;;
11447;SDS011;43755;49.736;8.734;2024-03-02T05:28:12;5.53;;;5.00;;
11447;SDS011;43755;49.736;8.734;2024-03-02T05:30:13;5.50;;;5.00;;
11447;SDS011;43755;49.736;8.734;2024-03-02T05:32:15;5.50;;;5.00;;
11447;SDS011;43755;49.736;8.734;2024-03-02T05:34:16;6.10;;;5.05;;
11447;SDS011;43755;49.736;8.734;2024-03-02T05:36:18;6.57;;;5.88;;
11447;SDS011;43755;49.736;8.734;2024-03-02T05:38:22;6.53;;;5.93;;
11447;SDS011;43755;49.736;8.734;2024-03-02T05:40:23;7.88;;;6.45;;
11447;SDS011;43755;49.736;8.734;2024-03-02T05:42:24;6.45;;;5.28;;
11447;SDS011;43755;49.736;8.734;2024-03-02T05:44:26;6.93;;;6.22;;
11447;SDS011;43755;49.736;8.734;2024-03-02T05:46:28;7.43;;;5.55;;
11447;SDS011;43755;49.736;8.734;2024-03-02T05:48:29;6.45;;;5.35;;
11447;SDS011;43755;49.736;8.734;2024-03-02T05:50:30;5.63;;;4.90;;
11447;SDS011;43755;49.736;8.734;2024-03-02T05:52:31;5.70;;;5.20;;
11447;SDS011;43755;49.736;8.734;2024-03-02T05:54:34;6.50;;;5.78;;
11447;SDS011;43755;49.736;8.734;2024-03-02T05:56:34;5.47;;;4.97;;
11447;SDS011;43755;49.736;8.734;2024-03-02T05:58:36;6.03;;;5.47;;
11447;SDS011;43755;49.736;8.734;2024-03-02T06:00:53;5.63;;;5.10;;
11447;SDS011;43755;49.736;8.734;2024-03-02T06:02:55;6.05;;;5.45;;
11447;SDS011;43755;49.736;8.734;2024-03-02T06:04:56;5.30;;;4.80;;
11447;SDS011;43755;49.736;8.734;2024-03-02T06:06:58;5.10;;;4.70;;
11447;SDS011;43755;49.736;8.734;2024-03-02T06:08:59;5.95;;;5.43;;
11447;SDS011;43755;49.736;8.734;2024-03-02T06:11:02;6.35;;;5.70;;
11447;SDS011;43755;49.736;8.734;2024-03-02T06:13:04;5.95;;;5.32;;
11447;SDS011;43755;49.736;8.734;2024-03-02T06:15:04;6.50;;;5.80;;
11447;SDS011;43755;49.736;8.734;2024-03-02T06:17:06;6.50;;;5.80;;
11447;SDS011;43755;49.736;8.734;2024-03-02T06:19:08;7.10;;;6.40;;
11447;SDS011;43755;49.736;8.734;2024-03-02T06:21:09;6.25;;;5.65;;
11447;SDS011;43755;49.736;8.734;2024-03-02T06:23:10;5.85;;;5.25;;
11447;SDS011;43755;49.736;8.734;2024-03-02T06:25:12;6.38;;;5.78;;
11447;SDS011;43755;49.736;8.734;2024-03-02T06:27:15;7.10;;;6.40;;
11447;SDS011;43755;49.736;8.734;2024-03-02T06:29:16;6.72;;;5.85;;
11447;SDS011;43755;49.736;8.734;2024-03-02T06:31:17;6.32;;;5.70;;
11447;SDS011;43755;49.736;8.734;2024-03-02T06:33:19;5.80;;;5.30;;
11447;SDS011;43755;49.736;8.734;2024-03-02T06:35:21;5.93;;;5.13;;
11447;SDS011;43755;49.736;8.734;2024-03-02T06:37:22;6.53;;;5.85;;
11447;SDS011;43755;49.736;8.734;2024-03-02T06:39:23;5.03;;;4.63;;
11447;SDS011;43755;49.736;8.734;2024-03-02T06:41:25;5.53;;;5.03;;
11447;SDS011;43755;49.736;8.734;2024-03-02T06:43:28;5.90;;;5.30;;
11447;SDS011;43755;49.736;8.734;2024-03-02T06:45:30;7.53;;;5.85;;
11447;SDS011;43755;49.736;8.734;2024-03-02T06:47:31;5.90;;;4.85;;
11447;SDS011;43755;49.736;8.734;2024-03-02T06:49:33;7.30;;;5.93;;
11447;SDS011;43755;49.736;8.734;2024-03-02T06:51:35;6.28;;;5.32;;
11447;SDS011;43755;49.736;8.734;2024-03-02T06:53:36;5.60;;;4.90;;
11447;SDS011;43755;49.736;8.734;2024-03-02T06:55:38;5.68;;;4.80;;
11447;SDS011;43755;49.736;8.734;2024-03-02T06:57:39;5.30;;;4.80;;
11447;SDS011;43755;49.736;8.734;2024-03-02T06:59:41;5.33;;;4.83;;
11447;SDS011;43755;49.736;8.734;2024-03-02T07:01:42;4.82;;;4.43;;
11447;SDS011;43755;49.736;8.734;2024-03-02T07:03:44;6.18;;;5.07;;
11447;SDS011;43755;49.736;8.734;2024-03-02T07:05:45;7.40;;;5.13;;
11447;SDS011;43755;49.736;8.734;2024-03-02T07:07:48;5.78;;;5.28;;
11447;SDS011;43755;49.736;8.734;2024-03-02T07:09:50;7.68;;;5.72;;
11447;SDS011;43755;49.736;8.734;2024-03-02T07:11:51;5.28;;;4.80;;
11447;SDS011;43755;49.736;8.734;2024-03-02T07:13:53;5.47;;;4.90;;
11447;SDS011;43755;49.736;8.734;2024-03-02T07:15:56;5.78;;;5.10;;
11447;SDS011;43755;49.736;8.734;2024-03-02T07:18:11;5.15;;;4.65;;
11447;SDS011;43755;49.736;8.734;2024-03-02T07:20:13;6.07;;;5.47;;
11447;SDS011;43755;49.736;8.734;2024-03-02T07:22:13;5.90;;;5.30;;
11447;SDS011;43755;49.736;8.734;2024-03-02T07:24:15;5.63;;;5.13;;
11447;SDS011;43755;49.736;8.734;2024-03-02T07:26:16;6.07;;;5.50;;
11447;SDS011;43755;49.736;8.734;2024-03-02T07:28:19;5.30;;;4.90;;
11447;SDS011;43755;49.736;8.734;2024-03-02T07:30:20;6.20;;;5.53;;
11447;SDS011;43755;49.736;8.734;2024-03-02T07:32:23;5.72;;;5.22;;
11447;SDS011;43755;49.736;8.734;2024-03-02T07:34:23;5.90;;;5.30;;
11447;SDS011;43755;49.736;8.734;2024-03-02T07:36:25;5.93;;;5.43;;
11447;SDS011;43755;49.736;8.734;2024-03-02T07:38:26;6.28;;;5.57;;
11447;SDS011;43755;49.736;8.734;2024-03-02T07:40:28;7.05;;;5.50;;
11447;SDS011;43755;49.736;8.734;2024-03-02T07:42:30;6.03;;;5.43;;
11447;SDS011;43755;49.736;8.734;2024-03-02T07:44:31;6.30;;;5.70;;
11447;SDS011;43755;49.736;8.734;2024-03-02T07:46:33;8.82;;;5.93;;
11447;SDS011;43755;49.736;8.734;2024-03-02T07:48:35;6.40;;;5.45;;
11447;SDS011;43755;49.736;8.734;2024-03-02T07:50:37;5.93;;;5.30;;
11447;SDS011;43755;49.736;8.734;2024-03-02T07:52:39;7.00;;;6.30;;
11447;SDS011;43755;49.736;8.734;2024-03-02T07:54:40;6.47;;;5.88;;
11447;SDS011;43755;49.736;8.734;2024-03-02T07:56:41;6.53;;;5.88;;
11447;SDS011;43755;49.736;8.734;2024-03-02T07:58:42;6.77;;;6.07;;
11447;SDS011;43755;49.736;8.734;2024-03-02T08:00:46;6.40;;;5.80;;
11447;SDS011;43755;49.736;8.734;2024-03-02T08:02:47;7.05;;;6.05;;
11447;SDS011;43755;49.736;8.734;2024-03-02T08:04:52;6.13;;;5.53;;
11447;SDS011;43755;49.736;8.734;2024-03-02T08:06:52;6.43;;;5.82;;
11447;SDS011;43755;49.736;8.734;2024-03-02T08:08:54;6.53;;;5.93;;
11447;SDS011;43755;49.736;8.734;2024-03-02T08:10:56;7.10;;;5.97;;
11447;SDS011;43755;49.736;8.734;2024-03-02T08:12:57;7.80;;;6.20;;
11447;SDS011;43755;49.736;8.734;2024-03-02T08:14:59;6.60;;;5.90;;
11447;SDS011;43755;49.736;8.734;2024-03-02T08:17:00;6.32;;;5.63;;
11447;SDS011;43755;49.736;8.734;2024-03-02T08:19:02;6.75;;;5.93;;
11447;SDS011;43755;49.736;8.734;2024-03-02T08:21:05;9.13;;;6.38;;
11447;SDS011;43755;49.736;8.734;2024-03-02T08:23:08;6.85;;;6.05;;
11447;SDS011;43755;49.736;8.734;2024-03-02T08:25:09;6.68;;;5.90;;
11447;SDS011;43755;49.736;8.734;2024-03-02T08:27:10;6.75;;;6.07;;
11447;SDS011;43755;49.736;8.734;2024-03-02T08:29:12;6.00;;;5.50;;
11447;SDS011;43755;49.736;8.734;2024-03-02T08:31:13;6.82;;;5.82;;
11447;SDS011;43755;49.736;8.734;2024-03-02T08:33:15;6.03;;;5.53;;
11447;SDS011;43755;49.736;8.734;2024-03-02T08:35:16;6.47;;;5.88;;
11447;SDS011;43755;49.736;8.734;2024-03-02T08:37:19;7.35;;;5.97;;
11447;SDS011;43755;49.736;8.734;2024-03-02T08:39:20;6.32;;;5.72;;
11447;SDS011;43755;49.736;8.734;2024-03-02T08:41:21;6.83;;;5.90;;
11447;SDS011;43755;49.736;8.734;2024-03-02T08:43:22;6.93;;;6.22;;
11447;SDS011;43755;49.736;8.734;2024-03-02T08:45:24;6.90;;;5.15;;
11447;SDS011;43755;49.736;8.734;2024-03-02T08:47:25;6.18;;;5.57;;
11447;SDS011;43755;49.736;8.734;2024-03-02T08:49:27;5.25;;;4.75;;
11447;SDS011;43755;49.736;8.734;2024-03-02T08:51:28;5.60;;;5.07;;
11447;SDS011;43755;49.736;8.734;2024-03-02T08:53:31;4.20;;;3.83;;
11447;SDS011;43755;49.736;8.734;2024-03-02T08:55:32;6.20;;;5.60;;
11447;SDS011;43755;49.736;8.734;2024-03-02T08:57:33;6.13;;;5.53;;
11447;SDS011;43755;49.736;8.734;2024-03-02T08:59:35;5.43;;;4.75;;
11447;SDS011;43755;49.736;8.734;2024-03-02T09:01:37;2.88;;;2.65;;
11447;SDS011;43755;49.736;8.734;2024-03-02T09:03:41;2.42;;;2.20;;
11447;SDS011;43755;49.736;8.734;2024-03-02T09:05:44;2.50;;;2.05;;
11447;SDS011;43755;49.736;8.734;2024-03-02T09:07:46;3.25;;;2.95;;
11447;SDS011;43755;49.736;8.734;2024-03-02T09:09:49;4.38;;;3.35;;
11447;SDS011;43755;49.736;8.734;2024-03-02T09:11:50;2.90;;;2.70;;
11447;SDS011;43755;49.736;8.734;2024-03-02T09:13:51;2.83;;;2.40;;
11447;SDS011;43755;49.736;8.734;2024-03-02T09:15:53;3.75;;;3.45;;
11447;SDS011;43755;49.736;8.734;2024-03-02T09:17:54;3.30;;;2.97;;
11447;SDS011;43755;49.736;8.734;2024-03-02T09:19:56;2.97;;;2.78;;
11447;SDS011;43755;49.736;8.734;2024-03-02T09:21:56;3.10;;;2.90;;
11447;SDS011;43755;49.736;8.734;2024-03-02T09:23:58;3.45;;;2.75;;
11447;SDS011;43755;49.736;8.734;2024-03-02T09:26:01;2.85;;;2.65;;
11447;SDS011;43755;49.736;8.734;2024-03-02T09:28:03;3.15;;;2.92;;
11447;SDS011;43755;49.736;8.734;2024-03-02T09:30:06;3.33;;;3.00;;
11447;SDS011;43755;49.736;8.734;2024-03-02T09:32:08;3.33;;;3.03;;
11447;SDS011;43755;49.736;8.734;2024-03-02T09:34:13;3.10;;;2.85;;
11447;SDS011;43755;49.736;8.734;2024-03-02T09:36:18;5.28;;;4.00;;
11447;SDS011;43755;49.736;8.734;2024-03-02T09:38:20;3.90;;;2.60;;
11447;SDS011;43755;49.736;8.734;2024-03-02T09:40:22;2.75;;;2.55;;
11447;SDS011;43755;49.736;8.734;2024-03-02T09:42:25;2.97;;;2.67;;
11447;SDS011;43755;49.736;8.734;2024-03-02T09:44:26;2.92;;;2.42;;
11447;SDS011;43755;49.736;8.734;2024-03-02T09:46:27;3.42;;;2.92;;
11447;SDS011;43755;49.736;8.734;2024-03-02T09:48:28;2.90;;;2.60;;
11447;SDS011;43755;49.736;8.734;2024-03-02T09:50:30;3.08;;;2.63;;
11447;SDS011;43755;49.736;8.734;2024-03-02T09:52:31;3.35;;;2.55;;
11447;SDS011;43755;49.736;8.734;2024-03-02T09:54:34;3.05;;;2.80;;
11447;SDS011;43755;49.736;8.734;2024-03-02T09:56:35;3.95;;;2.53;;
11447;SDS011;43755;49.736;8.734;2024-03-02T09:58:39;2.75;;;2.40;;
11447;SDS011;43755;49.736;8.734;2024-03-02T10:00:40;2.38;;;2.08;;
11447;SDS011;43755;49.736;8.734;2024-03-02T10:02:41;3.03;;;2.72;;
11447;SDS011;43755;49.736;8.734;2024-03-02T10:04:43;2.67;;;2.47;;
11447;SDS011;43755;49.736;8.734;2024-03-02T10:06:45;2.58;;;2.38;;
11447;SDS011;43755;49.736;8.734;2024-03-02T10:08:46;3.15;;;2.55;;
11447;SDS011;43755;49.736;8.734;2024-03-02T10:10:49;2.42;;;2.22;;
11447;SDS011;43755;49.736;8.734;2024-03-02T10:12:52;2.33;;;2.13;;
11447;SDS011;43755;49.736;8.734;2024-03-02T10:15:06;2.28;;;1.98;;
11447;SDS011;43755;49.736;8.734;2024-03-02T10:17:10;2.33;;;2.03;;
11447;SDS011;43755;49.736;8.734;2024-03-02T10:19:19;2.13;;;2.00;;
11447;SDS011;43755;49.736;8.734;2024-03-02T10:21:20;1.80;;;1.70;;
11447;SDS011;43755;49.736;8.734;2024-03-02T10:23:24;2.58;;;2.10;;
11447;SDS011;43755;49.736;8.734;2024-03-02T10:25:29;1.70;;;1.60;;
11447;SDS011;43755;49.736;8.734;2024-03-02T10:27:30;2.00;;;1.63;;
11447;SDS011;43755;49.736;8.734;2024-03-02T10:29:38;1.80;;;1.70;;
11447;SDS011;43755;49.736;8.734;2024-03-02T10:31:43;1.63;;;1.48;;
11447;SDS011;43755;49.736;8.734;2024-03-02T10:33:44;2.10;;;1.70;;
11447;SDS011;43755;49.736;8.734;2024-03-02T10:35:45;1.98;;;1.88;;
11447;SDS011;43755;49.736;8.734;2024-03-02T10:37:49;4.93;;;1.98;;
11447;SDS011;43755;49.736;8.734;2024-03-02T10:39:52;1.70;;;1.60;;
11447;SDS011;43755;49.736;8.734;2024-03-02T10:41:53;2.85;;;1.77;;
11447;SDS011;43755;49.736;8.734;2024-03-02T10:43:56;3.88;;;2.17;;
11447;SDS011;43755;49.736;8.734;2024-03-02T10:45:59;3.35;;;1.60;;
11447;SDS011;43755;49.736;8.734;2024-03-02T10:48:03;1.67;;;1.58;;
11447;SDS011;43755;49.736;8.734;2024-03-02T10:50:06;1.55;;;1.45;;
11447;SDS011;43755;49.736;8.734;2024-03-02T10:52:09;1.70;;;1.60;;
11447;SDS011;43755;49.736;8.734;2024-03-02T10:54:10;1.83;;;1.70;;
11447;SDS011;43755;49.736;8.734;2024-03-02T10:56:11;1.45;;;1.35;;
11447;SDS011;43755;49.736;8.734;2024-03-02T10:58:22;1.70;;;1.60;;
11447;SDS011;43755;49.736;8.734;2024-03-02T11:00:27;2.00;;;1.90;;
11447;SDS011;43755;49.736;8.734;2024-03-02T11:02:34;1.70;;;1.60;;
11447;SDS011;43755;49.736;8.734;2024-03-02T11:04:39;2.42;;;1.88;;
11447;SDS011;43755;49.736;8.734;2024-03-02T11:06:43;3.47;;;1.60;;
11447;SDS011;43755;49.736;8.734;2024-03-02T11:08:49;1.73;;;1.63;;
11447;SDS011;43755;49.736;8.734;2024-03-02T11:10:57;2.20;;;2.00;;
11447;SDS011;43755;49.736;8.734;2024-03-02T11:13:00;1.98;;;1.88;;
11447;SDS011;43755;49.736;8.734;2024-03-02T11:15:05;1.77;;;1.67;;
11447;SDS011;43755;49.736;8.734;2024-03-02T11:17:11;1.90;;;1.80;;
11447;SDS011;43755;49.736;8.734;2024-03-02T11:19:15;1.75;;;1.65;;
11447;SDS011;43755;49.736;8.734;2024-03-02T11:21:18;2.03;;;1.92;;
11447;SDS011;43755;49.736;8.734;2024-03-02T11:23:20;1.98;;;1.80;;
11447;SDS011;43755;49.736;8.734;2024-03-02T11:25:33;1.90;;;1.80;;
11447;SDS011;43755;49.736;8.734;2024-03-02T11:30:06;1.50;;;1.40;;
11447;SDS011;43755;49.736;8.734;2024-03-02T11:32:12;1.70;;;1.60;;
11447;SDS011;43755;49.736;8.734;2024-03-02T11:34:17;2.00;;;1.90;;
11447;SDS011;43755;49.736;8.734;2024-03-02T11:36:20;1.65;;;1.55;;
11447;SDS011;43755;49.736;8.734;2024-03-02T11:38:22;1.65;;;1.55;;
11447;SDS011;43755;49.736;8.734;2024-03-02T11:40:22;1.70;;;1.60;;
11447;SDS011;43755;49.736;8.734;2024-03-02T11:42:25;1.90;;;1.80;;
11447;SDS011;43755;49.736;8.734;2024-03-02T11:44:27;3.25;;;2.80;;
11447;SDS011;43755;49.736;8.734;2024-03-02T11:46:27;1.87;;;1.77;;
11447;SDS011;43755;49.736;8.734;2024-03-02T11:48:29;1.55;;;1.45;;
11447;SDS011;43755;49.736;8.734;2024-03-02T11:50:33;2.85;;;1.88;;
11447;SDS011;43755;49.736;8.734;2024-03-02T11:52:39;1.80;;;1.70;;
11447;SDS011;43755;49.736;8.734;2024-03-02T11:54:43;1.83;;;1.70;;
11447;SDS011;43755;49.736;8.734;2024-03-02T11:56:48;1.88;;;1.70;;
11447;SDS011;43755;49.736;8.734;2024-03-02T11:58:49;1.75;;;1.65;;
11447;SDS011;43755;49.736;8.734;2024-03-02T12:00:55;1.20;;;1.20;;
11447;SDS011;43755;49.736;8.734;2024-03-02T12:02:59;1.27;;;1.27;;
11447;SDS011;43755;49.736;8.734;2024-03-02T12:05:02;1.30;;;1.20;;
11447;SDS011;43755;49.736;8.734;2024-03-02T12:07:05;1.30;;;1.27;;
11447;SDS011;43755;49.736;8.734;2024-03-02T12:09:08;1.17;;;1.10;;
11447;SDS011;43755;49.736;8.734;2024-03-02T12:11:13;1.70;;;0.90;;
11447;SDS011;43755;49.736;8.734;2024-03-02T12:13:16;3.50;;;1.50;;
11447;SDS011;43755;49.736;8.734;2024-03-02T12:15:16;1.67;;;1.23;;
11447;SDS011;43755;49.736;8.734;2024-03-02T12:17:17;1.27;;;1.27;;